createdAt,value
2022-11-29T00:00:03.550Z,4.31
2022-11-29T00:01:03.515Z,4.31
2022-11-29T00:02:04.547Z,4.31
2022-11-29T00:03:04.104Z,4.31
2022-11-29T00:04:03.988Z,4.31
2022-11-29T00:05:03.903Z,4.31
2022-11-29T00:06:04.067Z,4.31
2022-11-29T00:07:04.059Z,4.31
2022-11-29T00:08:04.148Z,4.31
2022-11-29T00:09:04.137Z,4.25
2022-11-29T00:10:04.225Z,4.31
2022-11-29T00:11:04.150Z,4.31
2022-11-29T00:12:04.146Z,4.31
2022-11-29T00:13:04.142Z,4.31
2022-11-29T00:14:04.170Z,4.31
2022-11-29T00:15:04.146Z,4.31
2022-11-29T00:16:04.163Z,4.31
2022-11-29T00:17:04.113Z,4.31
2022-11-29T00:18:03.981Z,4.31
2022-11-29T00:19:03.987Z,4.31
2022-11-29T00:20:03.981Z,4.31
2022-11-29T00:21:03.987Z,4.31
2022-11-29T00:22:03.983Z,4.31
2022-11-29T00:23:03.988Z,4.31
2022-11-29T00:24:04.015Z,4.31
2022-11-29T00:25:03.904Z,4.31
2022-11-29T00:26:03.903Z,4.31
2022-11-29T00:27:03.750Z,4.31
2022-11-29T00:28:03.574Z,4.31
2022-11-29T00:29:03.584Z,4.31
2022-11-29T00:30:03.748Z,4.31
2022-11-29T00:31:03.953Z,4.31
2022-11-29T00:32:03.901Z,4.31
2022-11-29T00:33:03.905Z,4.31
2022-11-29T00:34:03.906Z,4.31
2022-11-29T00:35:08.224Z,4.31
2022-11-29T00:36:03.908Z,4.31
2022-11-29T00:37:03.823Z,4.31
2022-11-29T00:38:03.834Z,4.31
2022-11-29T00:39:03.817Z,4.31
2022-11-29T00:40:03.744Z,4.31
2022-11-29T00:41:03.666Z,4.31
2022-11-29T00:42:03.749Z,4.31
2022-11-29T00:43:03.656Z,4.31
2022-11-29T00:44:03.592Z,4.31
2022-11-29T00:45:03.667Z,4.38
2022-11-29T00:46:03.564Z,4.31
2022-11-29T00:47:03.577Z,4.38
2022-11-29T00:48:03.584Z,4.38
2022-11-29T00:49:03.583Z,4.38
2022-11-29T00:50:03.581Z,4.38
2022-11-29T00:51:03.492Z,4.38
2022-11-29T00:52:03.501Z,4.38
2022-11-29T00:53:03.581Z,4.38
2022-11-29T00:54:03.664Z,4.38
2022-11-29T00:55:03.579Z,4.38
2022-11-29T00:56:03.583Z,4.38
2022-11-29T00:57:03.745Z,4.38
2022-11-29T00:58:03.742Z,4.38
2022-11-29T00:59:03.817Z,4.38
2022-11-29T01:00:03.750Z,4.38
2022-11-29T01:01:03.776Z,4.38
2022-11-29T01:02:03.681Z,4.38
2022-11-29T01:03:03.497Z,4.38
2022-11-29T01:04:04.387Z,4.38
2022-11-29T01:05:04.377Z,4.38
2022-11-29T01:06:03.423Z,4.38
2022-11-29T01:07:04.390Z,4.44
2022-11-29T01:08:04.381Z,4.44
2022-11-29T01:09:04.391Z,4.44
2022-11-29T01:10:04.562Z,4.44
2022-11-29T01:11:03.590Z,4.44
2022-11-29T01:12:03.587Z,4.44
2022-11-29T01:13:03.423Z,4.44
2022-11-29T01:14:04.388Z,4.44
2022-11-29T01:15:03.506Z,4.44
2022-11-29T01:16:04.381Z,4.44
2022-11-29T01:17:04.436Z,4.44
2022-11-29T01:18:04.466Z,4.44
2022-11-29T01:19:04.393Z,4.44
2022-11-29T01:20:04.224Z,4.44
2022-11-29T01:21:04.227Z,4.44
2022-11-29T01:22:04.228Z,4.44
2022-11-29T01:23:04.137Z,4.44
2022-11-29T01:24:04.145Z,4.44
2022-11-29T01:25:04.322Z,4.44
2022-11-29T01:26:04.218Z,4.44
2022-11-29T01:27:04.296Z,4.44
2022-11-29T01:28:04.304Z,4.44
2022-11-29T01:29:04.389Z,4.44
2022-11-29T01:30:03.751Z,4.50
2022-11-29T01:31:03.744Z,4.50
2022-11-29T01:32:03.624Z,4.50
2022-11-29T01:33:03.580Z,4.44
2022-11-29T01:34:03.584Z,4.44
2022-11-29T01:35:03.739Z,4.50
2022-11-29T01:36:03.671Z,4.50
2022-11-29T01:37:03.749Z,4.50
2022-11-29T01:38:03.756Z,4.50
2022-11-29T01:39:03.661Z,4.50
2022-11-29T01:40:03.744Z,4.50
2022-11-29T01:41:03.665Z,4.50
2022-11-29T01:42:03.592Z,4.50
2022-11-29T01:43:03.508Z,4.50
2022-11-29T01:44:03.506Z,4.50
2022-11-29T01:45:03.499Z,4.50
2022-11-29T01:46:03.634Z,4.50
2022-11-29T01:47:03.501Z,4.50
2022-11-29T01:48:03.448Z,4.50
2022-11-29T01:49:04.390Z,4.50
2022-11-29T01:50:04.375Z,4.50
2022-11-29T01:51:04.385Z,4.50
2022-11-29T01:52:03.504Z,4.50
2022-11-29T01:53:04.467Z,4.56
2022-11-29T01:54:04.387Z,4.56
2022-11-29T01:55:04.398Z,4.50
2022-11-29T01:56:04.518Z,4.50
2022-11-29T01:57:03.419Z,4.50
2022-11-29T01:58:03.425Z,4.50
2022-11-29T01:59:04.390Z,4.50
2022-11-29T02:00:03.595Z,4.50
2022-11-29T02:01:03.564Z,4.50
2022-11-29T02:02:03.505Z,4.50
2022-11-29T02:03:04.391Z,4.50
2022-11-29T02:04:04.382Z,4.50
2022-11-29T02:05:04.466Z,4.50
2022-11-29T02:06:04.299Z,4.50
2022-11-29T02:07:04.297Z,4.56
2022-11-29T02:08:04.392Z,4.56
2022-11-29T02:09:04.297Z,4.56
2022-11-29T02:10:04.248Z,4.56
2022-11-29T02:11:04.301Z,4.56
2022-11-29T02:12:03.418Z,4.50
2022-11-29T02:13:03.424Z,4.56
2022-11-29T02:14:04.379Z,4.50
2022-11-29T02:15:04.384Z,4.50
2022-11-29T02:16:04.454Z,4.56
2022-11-29T02:17:04.388Z,4.50
2022-11-29T02:18:03.739Z,4.50
2022-11-29T02:19:03.741Z,4.50
2022-11-29T02:20:03.865Z,4.50
2022-11-29T02:21:03.745Z,4.50
2022-11-29T02:22:03.665Z,4.50
2022-11-29T02:23:03.662Z,4.50
2022-11-29T02:24:03.659Z,4.50
2022-11-29T02:25:03.580Z,4.50
2022-11-29T02:26:03.591Z,4.50
2022-11-29T02:27:03.919Z,4.56
2022-11-29T02:28:04.069Z,4.50
2022-11-29T02:29:03.989Z,4.50
2022-11-29T02:30:04.055Z,4.50
2022-11-29T02:31:04.188Z,4.50
2022-11-29T02:32:04.222Z,4.50
2022-11-29T02:33:04.143Z,4.50
2022-11-29T02:34:03.457Z,4.50
2022-11-29T02:35:03.498Z,4.50
2022-11-29T02:36:03.507Z,4.50
2022-11-29T02:37:08.638Z,4.50
2022-11-29T02:38:04.469Z,4.50
2022-11-29T02:39:04.311Z,4.50
2022-11-29T02:40:04.386Z,4.50
2022-11-29T02:41:04.380Z,4.50
2022-11-29T02:42:04.391Z,4.50
2022-11-29T02:43:04.319Z,4.50
2022-11-29T02:44:04.310Z,4.50
2022-11-29T02:45:04.310Z,4.50
2022-11-29T02:46:04.299Z,4.50
2022-11-29T02:47:04.145Z,4.50
2022-11-29T02:48:04.066Z,4.50
2022-11-29T02:49:04.215Z,4.50
2022-11-29T02:50:04.164Z,4.50
2022-11-29T02:51:04.301Z,4.50
2022-11-29T02:52:04.329Z,4.50
2022-11-29T02:53:04.163Z,4.50
2022-11-29T02:54:04.146Z,4.50
2022-11-29T02:55:04.222Z,4.56
2022-11-29T02:56:04.164Z,4.56
2022-11-29T02:57:04.221Z,4.56
2022-11-29T02:58:04.193Z,4.56
2022-11-29T02:59:03.897Z,4.56
2022-11-29T03:00:03.982Z,4.56
2022-11-29T03:01:04.101Z,4.56
2022-11-29T03:02:04.116Z,4.56
2022-11-29T03:03:04.069Z,4.56
2022-11-29T03:04:03.897Z,4.56
2022-11-29T03:05:03.904Z,4.56
2022-11-29T03:06:03.820Z,4.56
2022-11-29T03:07:03.749Z,4.56
2022-11-29T03:08:03.668Z,4.56
2022-11-29T03:09:03.574Z,4.56
2022-11-29T03:10:03.666Z,4.56
2022-11-29T03:11:03.584Z,4.56
2022-11-29T03:12:03.590Z,4.56
2022-11-29T03:13:03.505Z,4.56
2022-11-29T03:14:03.423Z,4.56
2022-11-29T03:15:03.494Z,4.56
2022-11-29T03:16:03.611Z,4.56
2022-11-29T03:17:03.505Z,4.56
2022-11-29T03:18:03.587Z,4.56
2022-11-29T03:19:03.501Z,4.56
2022-11-29T03:20:04.383Z,4.56
2022-11-29T03:21:03.512Z,4.56
2022-11-29T03:22:03.496Z,4.56
2022-11-29T03:23:03.419Z,4.56
2022-11-29T03:24:03.427Z,4.56
2022-11-29T03:25:04.384Z,4.56
2022-11-29T03:26:04.300Z,4.56
2022-11-29T03:27:04.383Z,4.56
2022-11-29T03:28:04.381Z,4.56
2022-11-29T03:29:04.303Z,4.56
2022-11-29T03:30:04.216Z,4.56
2022-11-29T03:31:04.321Z,4.56
2022-11-29T03:32:04.144Z,4.56
2022-11-29T03:33:04.064Z,4.56
2022-11-29T03:34:04.061Z,4.56
2022-11-29T03:35:03.986Z,4.56
2022-11-29T03:36:03.981Z,4.56
2022-11-29T03:37:04.065Z,4.56
2022-11-29T03:38:04.141Z,4.56
2022-11-29T03:39:04.164Z,4.56
2022-11-29T03:40:04.149Z,4.56
2022-11-29T03:41:04.223Z,4.56
2022-11-29T03:42:04.222Z,4.56
2022-11-29T03:43:04.226Z,4.62
2022-11-29T03:44:04.228Z,4.62
2022-11-29T03:45:04.219Z,4.62
2022-11-29T03:46:04.343Z,4.62
2022-11-29T03:47:04.219Z,4.62
2022-11-29T03:48:04.303Z,4.62
2022-11-29T03:49:04.329Z,4.62
2022-11-29T03:50:04.307Z,4.62
2022-11-29T03:51:04.150Z,4.62
2022-11-29T03:52:04.222Z,4.62
2022-11-29T03:53:04.143Z,4.62
2022-11-29T03:54:04.147Z,4.62
2022-11-29T03:55:04.080Z,4.62
2022-11-29T03:56:04.058Z,4.62
2022-11-29T03:57:04.146Z,4.62
2022-11-29T03:58:04.065Z,4.62
2022-11-29T03:59:04.142Z,4.62
2022-11-29T04:00:04.089Z,4.62
2022-11-29T04:01:04.066Z,4.62
2022-11-29T04:02:04.065Z,4.62
2022-11-29T04:03:04.012Z,4.62
2022-11-29T04:04:03.913Z,4.62
2022-11-29T04:05:03.825Z,4.62
2022-11-29T04:06:03.738Z,4.62
2022-11-29T04:07:03.738Z,4.62
2022-11-29T04:08:03.823Z,4.62
2022-11-29T04:09:03.744Z,4.62
2022-11-29T04:10:03.688Z,4.62
2022-11-29T04:11:03.584Z,4.62
2022-11-29T04:12:03.510Z,4.62
2022-11-29T04:13:03.502Z,4.62
2022-11-29T04:14:03.501Z,4.62
2022-11-29T04:15:03.512Z,4.62
2022-11-29T04:16:04.531Z,4.62
2022-11-29T04:17:04.466Z,4.69
2022-11-29T04:18:04.459Z,4.69
2022-11-29T04:19:04.375Z,4.62
2022-11-29T04:20:04.465Z,4.62
2022-11-29T04:21:04.296Z,4.69
2022-11-29T04:22:04.303Z,4.69
2022-11-29T04:23:04.235Z,4.62
2022-11-29T04:24:04.221Z,4.62
2022-11-29T04:25:04.150Z,4.69
2022-11-29T04:26:04.065Z,4.69
2022-11-29T04:27:04.060Z,4.69
2022-11-29T04:28:04.141Z,4.62
2022-11-29T04:29:04.220Z,4.69
2022-11-29T04:30:04.073Z,4.62
2022-11-29T04:31:04.036Z,4.69
2022-11-29T04:32:03.905Z,4.69
2022-11-29T04:33:03.820Z,4.62
2022-11-29T04:34:03.819Z,4.69
2022-11-29T04:35:03.655Z,4.69
2022-11-29T04:36:03.750Z,4.69
2022-11-29T04:37:03.987Z,4.75
2022-11-29T04:38:03.980Z,4.75
2022-11-29T04:39:03.990Z,4.69
2022-11-29T04:40:03.841Z,4.69
2022-11-29T04:41:03.742Z,4.69
2022-11-29T04:42:03.822Z,4.69
2022-11-29T04:43:03.825Z,4.69
2022-11-29T04:44:03.743Z,4.69
2022-11-29T04:45:03.739Z,4.69
2022-11-29T04:46:03.831Z,4.69
2022-11-29T04:47:03.665Z,4.69
2022-11-29T04:48:03.663Z,4.69
2022-11-29T04:49:03.590Z,4.69
2022-11-29T04:50:03.495Z,4.69
2022-11-29T04:51:03.581Z,4.69
2022-11-29T04:52:03.428Z,4.69
2022-11-29T04:53:04.381Z,4.69
2022-11-29T04:54:04.388Z,4.69
2022-11-29T04:55:04.460Z,4.69
2022-11-29T04:56:04.304Z,4.69
2022-11-29T04:57:04.307Z,4.69
2022-11-29T04:58:04.306Z,4.69
2022-11-29T04:59:04.392Z,4.69
2022-11-29T05:00:04.305Z,4.69
2022-11-29T05:01:04.227Z,4.69
2022-11-29T05:02:04.235Z,4.69
2022-11-29T05:03:04.257Z,4.69
2022-11-29T05:04:04.138Z,4.69
2022-11-29T05:05:04.060Z,4.69
2022-11-29T05:06:04.177Z,4.69
2022-11-29T05:07:04.306Z,4.69
2022-11-29T05:08:04.232Z,4.69
2022-11-29T05:09:04.135Z,4.69
2022-11-29T05:10:04.138Z,4.69
2022-11-29T05:11:04.223Z,4.69
2022-11-29T05:12:04.311Z,4.69
2022-11-29T05:13:04.307Z,4.69
2022-11-29T05:14:04.301Z,4.69
2022-11-29T05:15:04.305Z,4.69
2022-11-29T05:16:04.291Z,4.69
2022-11-29T05:17:04.144Z,4.69
2022-11-29T05:18:04.233Z,4.69
2022-11-29T05:19:04.140Z,4.69
2022-11-29T05:20:04.057Z,4.69
2022-11-29T05:21:04.062Z,4.69
2022-11-29T05:22:04.170Z,4.69
2022-11-29T05:23:04.149Z,4.69
2022-11-29T05:24:04.139Z,4.69
2022-11-29T05:25:04.335Z,4.69
2022-11-29T05:26:04.072Z,4.69
2022-11-29T05:27:04.140Z,4.69
2022-11-29T05:28:08.539Z,4.69
2022-11-29T05:29:04.077Z,4.69
2022-11-29T05:30:04.069Z,4.69
2022-11-29T05:31:04.299Z,4.69
2022-11-29T05:32:04.143Z,4.69
2022-11-29T05:33:04.061Z,4.69
2022-11-29T05:34:04.144Z,4.69
2022-11-29T05:35:04.058Z,4.69
2022-11-29T05:36:04.142Z,4.69
2022-11-29T05:37:04.140Z,4.69
2022-11-29T05:38:04.147Z,4.69
2022-11-29T05:39:03.979Z,4.69
2022-11-29T05:40:04.142Z,4.69
2022-11-29T05:41:04.064Z,4.69
2022-11-29T05:42:03.979Z,4.69
2022-11-29T05:43:03.901Z,4.69
2022-11-29T05:44:03.823Z,4.69
2022-11-29T05:45:03.822Z,4.69
2022-11-29T05:46:03.848Z,4.69
2022-11-29T05:47:03.659Z,4.69
2022-11-29T05:48:03.577Z,4.69
2022-11-29T05:49:03.660Z,4.62
2022-11-29T05:50:03.744Z,4.69
2022-11-29T05:51:03.749Z,4.69
2022-11-29T05:52:03.744Z,4.62
2022-11-29T05:53:03.740Z,4.62
2022-11-29T05:54:03.672Z,4.62
2022-11-29T05:55:03.576Z,4.69
2022-11-29T05:56:03.658Z,4.62
2022-11-29T05:57:03.584Z,4.62
2022-11-29T05:58:03.510Z,4.69
2022-11-29T05:59:04.393Z,4.69
2022-11-29T06:00:03.427Z,4.69
2022-11-29T06:01:04.383Z,4.69
2022-11-29T06:02:04.329Z,4.69
2022-11-29T06:03:04.449Z,4.69
2022-11-29T06:04:04.383Z,4.69
2022-11-29T06:05:03.521Z,4.62
2022-11-29T06:06:04.294Z,4.62
2022-11-29T06:07:04.301Z,4.62
2022-11-29T06:08:04.221Z,4.62
2022-11-29T06:09:04.143Z,4.62
2022-11-29T06:10:04.376Z,4.62
2022-11-29T06:11:03.580Z,4.62
2022-11-29T06:12:03.503Z,4.62
2022-11-29T06:13:03.418Z,4.62
2022-11-29T06:14:04.379Z,4.62
2022-11-29T06:15:04.378Z,4.62
2022-11-29T06:16:04.441Z,4.62
2022-11-29T06:17:04.368Z,4.62
2022-11-29T06:18:04.382Z,4.62
2022-11-29T06:19:04.383Z,4.62
2022-11-29T06:20:04.387Z,4.62
2022-11-29T06:21:04.302Z,4.62
2022-11-29T06:22:04.297Z,4.62
2022-11-29T06:23:04.303Z,4.62
2022-11-29T06:24:04.378Z,4.62
2022-11-29T06:25:03.428Z,4.62
2022-11-29T06:26:04.539Z,4.62
2022-11-29T06:27:04.391Z,4.62
2022-11-29T06:28:04.315Z,4.62
2022-11-29T06:29:04.387Z,4.62
2022-11-29T06:30:03.433Z,4.62
2022-11-29T06:31:03.628Z,4.62
2022-11-29T06:32:04.463Z,4.62
2022-11-29T06:33:03.504Z,4.62
2022-11-29T06:34:04.469Z,4.56
2022-11-29T06:35:04.393Z,4.62
2022-11-29T06:36:04.389Z,4.62
2022-11-29T06:37:04.383Z,4.62
2022-11-29T06:38:03.549Z,4.62
2022-11-29T06:39:04.382Z,4.62
2022-11-29T06:40:03.430Z,4.56
2022-11-29T06:41:03.569Z,4.56
2022-11-29T06:42:04.389Z,4.56
2022-11-29T06:43:04.311Z,4.56
2022-11-29T06:44:04.224Z,4.56
2022-11-29T06:45:04.143Z,4.56
2022-11-29T06:46:04.067Z,4.56
2022-11-29T06:47:04.043Z,4.56
2022-11-29T06:48:03.899Z,4.56
2022-11-29T06:49:04.133Z,4.56
2022-11-29T06:50:04.070Z,4.56
2022-11-29T06:51:03.899Z,4.56
2022-11-29T06:52:03.994Z,4.56
2022-11-29T06:53:03.988Z,4.56
2022-11-29T06:54:03.824Z,4.56
2022-11-29T06:55:03.824Z,4.56
2022-11-29T06:56:03.824Z,4.56
2022-11-29T06:57:03.665Z,4.56
2022-11-29T06:58:03.585Z,4.56
2022-11-29T06:59:03.587Z,4.56
2022-11-29T07:00:03.487Z,4.56
2022-11-29T07:01:04.486Z,4.56
2022-11-29T07:02:04.413Z,4.56
2022-11-29T07:03:03.505Z,4.56
2022-11-29T07:04:04.384Z,4.56
2022-11-29T07:05:04.394Z,4.56
2022-11-29T07:06:04.304Z,4.56
2022-11-29T07:07:04.339Z,4.56
2022-11-29T07:08:04.319Z,4.56
2022-11-29T07:09:04.224Z,4.56
2022-11-29T07:10:04.384Z,4.62
2022-11-29T07:11:04.306Z,4.62
2022-11-29T07:12:04.307Z,4.62
2022-11-29T07:13:04.379Z,4.62
2022-11-29T07:14:03.421Z,4.62
2022-11-29T07:15:04.392Z,4.62
2022-11-29T07:16:04.416Z,4.62
2022-11-29T07:17:04.306Z,4.62
2022-11-29T07:18:04.222Z,4.62
2022-11-29T07:19:04.143Z,4.62
2022-11-29T07:20:04.147Z,4.62
2022-11-29T07:21:04.055Z,4.62
2022-11-29T07:22:03.981Z,4.62
2022-11-29T07:23:04.069Z,4.62
2022-11-29T07:24:04.148Z,4.62
2022-11-29T07:25:03.988Z,4.62
2022-11-29T07:26:03.906Z,4.62
2022-11-29T07:27:03.834Z,4.62
2022-11-29T07:28:04.061Z,4.69
2022-11-29T07:29:03.522Z,4.69
2022-11-29T07:30:03.598Z,4.69
2022-11-29T07:31:03.550Z,4.69
2022-11-29T07:32:03.661Z,4.69
2022-11-29T07:33:03.745Z,4.69
2022-11-29T07:34:03.753Z,4.69
2022-11-29T07:35:03.708Z,4.69
2022-11-29T07:36:03.676Z,4.69
2022-11-29T07:37:03.585Z,4.69
2022-11-29T07:38:03.580Z,4.69
2022-11-29T07:39:03.428Z,4.75
2022-11-29T07:40:04.407Z,4.75
2022-11-29T07:41:04.338Z,4.75
2022-11-29T07:42:04.390Z,4.75
2022-11-29T07:43:04.229Z,4.75
2022-11-29T07:44:04.306Z,4.75
2022-11-29T07:45:04.298Z,4.75
2022-11-29T07:46:04.136Z,4.75
2022-11-29T07:47:04.307Z,4.81
2022-11-29T07:48:04.215Z,4.81
2022-11-29T07:49:04.215Z,4.81
2022-11-29T07:50:04.303Z,4.81
2022-11-29T07:51:04.228Z,4.81
2022-11-29T07:52:04.387Z,4.81
2022-11-29T07:53:04.297Z,4.88
2022-11-29T07:54:04.221Z,4.88
2022-11-29T07:55:04.139Z,4.88
2022-11-29T07:56:04.070Z,4.88
2022-11-29T07:57:03.905Z,4.88
2022-11-29T07:58:03.815Z,4.88
2022-11-29T07:59:03.978Z,4.88
2022-11-29T08:00:03.902Z,4.88
2022-11-29T08:01:04.045Z,4.88
2022-11-29T08:02:08.829Z,4.94
2022-11-29T08:03:03.983Z,4.94
2022-11-29T08:04:03.990Z,4.94
2022-11-29T08:05:03.987Z,4.94
2022-11-29T08:06:03.906Z,4.94
2022-11-29T08:07:03.773Z,4.94
2022-11-29T08:08:03.828Z,5.00
2022-11-29T08:09:03.827Z,5.00
2022-11-29T08:10:03.843Z,5.00
2022-11-29T08:11:03.911Z,5.00
2022-11-29T08:12:03.744Z,5.00
2022-11-29T08:13:03.667Z,5.06
2022-11-29T08:14:03.663Z,5.06
2022-11-29T08:15:03.510Z,5.06
2022-11-29T08:16:03.515Z,5.06
2022-11-29T08:17:03.510Z,5.06
2022-11-29T08:18:03.435Z,5.12
2022-11-29T08:19:04.384Z,5.12
2022-11-29T08:20:04.651Z,5.12
2022-11-29T08:21:04.473Z,5.12
2022-11-29T08:22:04.308Z,5.19
2022-11-29T08:23:04.221Z,5.19
2022-11-29T08:24:04.306Z,5.19
2022-11-29T08:25:04.300Z,5.19
2022-11-29T08:26:04.303Z,5.19
2022-11-29T08:27:04.392Z,5.25
2022-11-29T08:28:04.230Z,5.25
2022-11-29T08:29:04.383Z,5.25
2022-11-29T08:30:04.305Z,5.25
2022-11-29T08:31:04.218Z,5.25
2022-11-29T08:32:04.289Z,5.31
2022-11-29T08:33:04.160Z,5.31
2022-11-29T08:34:04.066Z,5.31
2022-11-29T08:35:03.422Z,5.31
2022-11-29T08:36:04.377Z,5.38
2022-11-29T08:37:04.312Z,5.38
2022-11-29T08:38:04.152Z,5.38
2022-11-29T08:39:09.089Z,5.38
2022-11-29T08:40:03.987Z,5.38
2022-11-29T08:41:04.070Z,5.44
2022-11-29T08:42:04.063Z,5.44
2022-11-29T08:43:04.060Z,5.44
2022-11-29T08:44:04.076Z,5.44
2022-11-29T08:45:04.155Z,5.44
2022-11-29T08:46:04.108Z,5.50
2022-11-29T08:47:04.068Z,5.50
2022-11-29T08:48:03.978Z,5.50
2022-11-29T08:49:04.143Z,5.50
2022-11-29T08:50:04.234Z,5.56
2022-11-29T08:51:04.073Z,5.56
2022-11-29T08:52:03.905Z,5.56
2022-11-29T08:53:03.989Z,5.56
2022-11-29T08:54:03.985Z,5.56
2022-11-29T08:55:03.857Z,5.62
2022-11-29T08:56:17.238Z,5.62
2022-11-29T08:57:37.786Z,5.62
2022-11-29T08:58:04.222Z,5.62
2022-11-29T08:59:04.304Z,5.62
2022-11-29T09:00:04.309Z,5.69
2022-11-29T09:01:04.299Z,5.69
2022-11-29T09:02:04.224Z,5.69
2022-11-29T09:03:04.062Z,5.69
2022-11-29T09:04:04.067Z,5.75
2022-11-29T09:05:03.989Z,5.75
2022-11-29T09:06:07.617Z,5.75
2022-11-29T09:07:03.828Z,5.75
2022-11-29T09:08:03.669Z,5.75
2022-11-29T09:09:03.679Z,5.81
2022-11-29T09:10:03.583Z,5.81
2022-11-29T09:11:03.502Z,5.81
2022-11-29T09:12:04.407Z,5.81
2022-11-29T09:13:04.304Z,5.81
2022-11-29T09:14:04.304Z,5.81
2022-11-29T09:15:04.361Z,5.88
2022-11-29T09:16:04.354Z,5.88
2022-11-29T09:17:04.147Z,5.88
2022-11-29T09:18:04.140Z,5.88
2022-11-29T09:19:04.143Z,5.88
2022-11-29T09:20:04.227Z,5.88
2022-11-29T09:21:04.145Z,5.94
2022-11-29T09:22:04.195Z,5.94
2022-11-29T09:23:04.062Z,5.94
2022-11-29T09:24:04.093Z,5.94
2022-11-29T09:25:04.220Z,5.94
2022-11-29T09:26:04.170Z,5.94
2022-11-29T09:27:04.061Z,6.00
2022-11-29T09:28:04.063Z,6.00
2022-11-29T09:29:04.023Z,6.00
2022-11-29T09:30:04.077Z,6.00
2022-11-29T09:31:03.997Z,6.06
2022-11-29T09:32:04.152Z,6.06
2022-11-29T09:33:04.070Z,6.06
2022-11-29T09:34:03.988Z,6.06
2022-11-29T09:35:03.906Z,6.06
2022-11-29T09:36:04.010Z,6.06
2022-11-29T09:37:04.068Z,6.06
2022-11-29T09:38:04.147Z,6.06
2022-11-29T09:39:04.063Z,6.12
2022-11-29T09:40:04.064Z,6.12
2022-11-29T09:41:03.978Z,6.12
2022-11-29T09:42:03.998Z,6.12
2022-11-29T09:43:03.988Z,6.12
2022-11-29T09:44:03.901Z,6.12
2022-11-29T09:45:03.906Z,6.12
2022-11-29T09:46:03.862Z,6.12
2022-11-29T09:47:03.742Z,6.19
2022-11-29T09:48:03.749Z,6.19
2022-11-29T09:49:03.610Z,6.19
2022-11-29T09:50:03.587Z,6.19
2022-11-29T09:51:03.614Z,6.19
2022-11-29T09:52:03.503Z,6.19
2022-11-29T09:53:03.502Z,6.19
2022-11-29T09:54:04.386Z,6.19
2022-11-29T09:55:04.220Z,6.19
2022-11-29T09:56:04.225Z,6.19
2022-11-29T09:57:08.964Z,6.19
2022-11-29T09:58:04.155Z,6.25
2022-11-29T09:59:04.057Z,6.25
2022-11-29T10:00:04.066Z,6.25
2022-11-29T10:01:04.149Z,6.25
2022-11-29T10:02:04.120Z,6.25
2022-11-29T10:03:03.987Z,6.25
2022-11-29T10:04:04.069Z,6.25
2022-11-29T10:05:04.061Z,6.25
2022-11-29T10:06:04.062Z,6.25
2022-11-29T10:07:04.072Z,6.25
2022-11-29T10:08:04.063Z,6.25
2022-11-29T10:09:03.981Z,6.25
2022-11-29T10:10:03.986Z,6.31
2022-11-29T10:11:03.912Z,6.31
2022-11-29T10:12:03.825Z,6.31
2022-11-29T10:13:03.827Z,6.31
2022-11-29T10:14:03.831Z,6.31
2022-11-29T10:15:03.744Z,6.31
2022-11-29T10:16:03.669Z,6.31
2022-11-29T10:17:03.670Z,6.31
2022-11-29T10:18:03.755Z,6.31
2022-11-29T10:19:03.741Z,6.31
2022-11-29T10:20:03.746Z,6.31
2022-11-29T10:21:03.906Z,6.31
2022-11-29T10:22:03.910Z,6.31
2022-11-29T10:23:03.983Z,6.38
2022-11-29T10:24:04.051Z,6.38
2022-11-29T10:25:03.986Z,6.38
2022-11-29T10:26:03.989Z,6.38
2022-11-29T10:27:03.980Z,6.38
2022-11-29T10:28:03.826Z,6.38
2022-11-29T10:29:03.914Z,6.44
2022-11-29T10:30:03.743Z,6.44
2022-11-29T10:31:03.878Z,6.44
2022-11-29T10:32:07.195Z,6.44
2022-11-29T10:33:03.580Z,6.44
2022-11-29T10:34:03.664Z,6.44
2022-11-29T10:35:03.668Z,6.44
2022-11-29T10:36:03.751Z,6.44
2022-11-29T10:37:03.686Z,6.44
2022-11-29T10:38:30.591Z,6.44
2022-11-29T10:39:03.752Z,6.44
2022-11-29T10:40:03.661Z,6.44
2022-11-29T10:41:03.664Z,6.44
2022-11-29T10:42:03.583Z,6.44
2022-11-29T10:43:03.501Z,6.44
2022-11-29T10:44:03.509Z,6.44
2022-11-29T10:45:04.476Z,6.44
2022-11-29T10:46:04.496Z,6.44
2022-11-29T10:47:07.956Z,6.44
2022-11-29T10:48:04.399Z,6.44
2022-11-29T10:49:04.305Z,6.44
2022-11-29T10:50:04.229Z,6.44
2022-11-29T10:51:04.308Z,6.44
2022-11-29T10:52:04.381Z,6.50
2022-11-29T10:53:04.460Z,6.50
2022-11-29T10:54:04.386Z,6.50
2022-11-29T10:55:03.522Z,6.50
2022-11-29T10:56:04.471Z,6.50
2022-11-29T10:57:04.381Z,6.50
2022-11-29T10:58:03.515Z,6.44
2022-11-29T10:59:03.424Z,6.44
2022-11-29T11:00:03.506Z,6.50
2022-11-29T11:01:03.636Z,6.50
2022-11-29T11:02:03.589Z,6.50
2022-11-29T11:03:03.584Z,6.50
2022-11-29T11:04:03.502Z,6.50
2022-11-29T11:05:03.511Z,6.50
2022-11-29T11:06:03.431Z,6.50
2022-11-29T11:07:04.471Z,6.50
2022-11-29T11:08:04.301Z,6.50
2022-11-29T11:09:03.509Z,6.50
2022-11-29T11:10:04.384Z,6.50
2022-11-29T11:11:04.391Z,6.50
2022-11-29T11:12:04.381Z,6.50
2022-11-29T11:13:04.384Z,6.50
2022-11-29T11:14:04.386Z,6.50
2022-11-29T11:15:04.470Z,6.50
2022-11-29T11:16:04.391Z,6.50
2022-11-29T11:17:04.447Z,6.50
2022-11-29T11:18:04.491Z,6.50
2022-11-29T11:19:04.389Z,6.50
2022-11-29T11:20:03.431Z,6.50
2022-11-29T11:21:04.386Z,6.50
2022-11-29T11:22:04.304Z,6.50
2022-11-29T11:23:03.422Z,6.50
2022-11-29T11:24:04.389Z,6.50
2022-11-29T11:25:04.324Z,6.50
2022-11-29T11:26:04.395Z,6.50
2022-11-29T11:27:04.304Z,6.50
2022-11-29T11:28:04.234Z,6.50
2022-11-29T11:29:04.142Z,6.50
2022-11-29T11:30:04.187Z,6.50
2022-11-29T11:31:04.241Z,6.50
2022-11-29T11:32:03.983Z,6.50
2022-11-29T11:33:03.905Z,6.50
2022-11-29T11:34:03.833Z,6.50
2022-11-29T11:35:03.824Z,6.50
2022-11-29T11:36:03.744Z,6.50
2022-11-29T11:37:03.674Z,6.50
2022-11-29T11:38:03.665Z,6.50
2022-11-29T11:39:03.588Z,6.50
2022-11-29T11:40:03.554Z,6.50
2022-11-29T11:41:03.424Z,6.50
2022-11-29T11:42:03.831Z,6.50
2022-11-29T11:43:03.906Z,6.50
2022-11-29T11:44:07.077Z,6.44
2022-11-29T11:45:04.381Z,6.50
2022-11-29T11:46:06.778Z,6.50
2022-11-29T11:47:04.149Z,6.50
2022-11-29T11:48:04.063Z,6.44
2022-11-29T11:49:04.064Z,6.44
2022-11-29T11:50:04.184Z,6.44
2022-11-29T11:51:04.230Z,6.44
2022-11-29T11:52:04.139Z,6.50
2022-11-29T11:53:04.146Z,6.50
2022-11-29T11:54:04.069Z,6.50
2022-11-29T11:55:03.998Z,6.50
2022-11-29T11:56:03.900Z,6.50
2022-11-29T11:57:03.936Z,6.44
2022-11-29T11:58:09.628Z,6.50
2022-11-29T11:59:03.821Z,6.44
2022-11-29T12:00:07.109Z,6.44
2022-11-29T12:01:04.933Z,6.44
2022-11-29T12:02:03.896Z,6.44
2022-11-29T12:03:03.927Z,6.44
2022-11-29T12:04:03.741Z,6.50
2022-11-29T12:05:03.659Z,6.44
2022-11-29T12:06:03.748Z,6.44
2022-11-29T12:07:03.864Z,6.44
2022-11-29T12:08:08.312Z,6.44
2022-11-29T12:09:03.752Z,6.44
2022-11-29T12:10:03.604Z,6.44
2022-11-29T12:11:07.150Z,6.44
2022-11-29T12:12:03.826Z,6.44
2022-11-29T12:13:03.740Z,6.44
2022-11-29T12:14:03.742Z,6.44
2022-11-29T12:15:03.739Z,6.44
2022-11-29T12:16:03.721Z,6.44
2022-11-29T12:17:03.746Z,6.44
2022-11-29T12:18:03.699Z,6.44
2022-11-29T12:19:03.610Z,6.44
2022-11-29T12:20:03.507Z,6.44
2022-11-29T12:21:03.503Z,6.50
2022-11-29T12:22:03.425Z,6.50
2022-11-29T12:23:03.427Z,6.50
2022-11-29T12:24:04.461Z,6.50
2022-11-29T12:25:04.387Z,6.50
2022-11-29T12:26:04.289Z,6.50
2022-11-29T12:27:04.338Z,6.44
2022-11-29T12:28:04.321Z,6.50
2022-11-29T12:29:04.217Z,6.44
2022-11-29T12:30:04.145Z,6.44
2022-11-29T12:31:04.208Z,6.44
2022-11-29T12:32:04.067Z,6.44
2022-11-29T12:33:04.147Z,6.50
2022-11-29T12:34:04.077Z,6.50
2022-11-29T12:35:04.069Z,6.50
2022-11-29T12:36:03.996Z,6.50
2022-11-29T12:37:03.982Z,6.50
2022-11-29T12:38:03.908Z,6.50
2022-11-29T12:39:03.823Z,6.50
2022-11-29T12:40:03.738Z,6.50
2022-11-29T12:41:03.671Z,6.50
2022-11-29T12:42:03.503Z,6.50
2022-11-29T12:43:03.585Z,6.50
2022-11-29T12:44:03.510Z,6.50
2022-11-29T12:45:03.417Z,6.50
2022-11-29T12:46:04.445Z,6.50
2022-11-29T12:47:34.455Z,6.50
2022-11-29T12:48:03.587Z,6.44
2022-11-29T12:49:03.420Z,6.44
2022-11-29T12:50:04.394Z,6.50
2022-11-29T12:51:03.430Z,6.50
2022-11-29T12:52:04.381Z,6.50
2022-11-29T12:53:04.463Z,6.50
2022-11-29T12:54:04.303Z,6.50
2022-11-29T12:55:04.257Z,6.50
2022-11-29T12:56:04.311Z,6.50
2022-11-29T12:57:04.390Z,6.50
2022-11-29T12:58:04.308Z,6.50
2022-11-29T12:59:04.225Z,6.50
2022-11-29T13:00:04.139Z,6.50
2022-11-29T13:01:04.145Z,6.50
2022-11-29T13:02:04.286Z,6.50
2022-11-29T13:03:04.200Z,6.50
2022-11-29T13:04:04.094Z,6.50
2022-11-29T13:05:04.071Z,6.50
2022-11-29T13:06:04.153Z,6.50
2022-11-29T13:07:04.100Z,6.50
2022-11-29T13:08:04.147Z,6.50
2022-11-29T13:09:04.232Z,6.50
2022-11-29T13:10:04.304Z,6.50
2022-11-29T13:11:04.261Z,6.50
2022-11-29T13:12:04.228Z,6.50
2022-11-29T13:13:04.152Z,6.50
2022-11-29T13:14:34.486Z,6.50
2022-11-29T13:15:04.392Z,6.50
2022-11-29T13:16:04.367Z,6.50
2022-11-29T13:17:04.304Z,6.50
2022-11-29T13:18:04.228Z,6.50